Saint Charles, Michigan
Current Conditions -  °F | °C
As of 3:53 AM on Friday 19 Dec 2014 (Local Time) from KMBS Reporting Station
Overcast Overcast  
Wind Chill: 21°   Ceiling: 1600
Heat Index: 26°   Visibility: 10mi
Dew Point: 19°   Wind: 5mph
Humidity: 75%   Direction: 280°W
Pressure: 30.24"   Gusts: NA
Location:  43.3°N, 84.14°W
Report Text: KMBS 190853Z 28004KT 10SM OVC016 M03/M07 A3024 RMK AO2 SLP248 T10331072 53002
Loading
Personal Weather Stations






























Interactive Weather Map New forecast layout! Learn more

10-Day Weather Forecast

Advertisements
Track Severe Weather on mobile